Time;durP1;ratioP1;P1;durP2;ratioP2;P2;SDS_P1;SDS_P2;PMS_P1;PMS_P2;Temp;Humidity;BMP_temperature;BMP_pressure;BME280_temperature;BME280_humidity;BME280_pressure;Samples;Min_cycle;Max_cycle;Signal;HPM_P1;HPM_P2
2023/01/05 00:00:45;;;;;;;;;;;14.80;65.00;;;;;;5074496;28;19920;-71
2023/01/05 00:03:11;;;;;;;;;;;14.70;64.90;;;;;;5093032;28;19973;-65
2023/01/05 00:05:36;;;;;;;;;;;14.70;64.90;;;;;;5093078;28;20351;-71
2023/01/05 00:08:02;;;;;;;;;;;14.70;64.90;;;;;;5093014;28;20007;-65
2023/01/05 00:24:15;;;;;;;;;;;14.70;64.90;;;;;;5092469;28;20022;-66
2023/01/05 00:26:40;;;;;;;;;;;14.70;64.90;;;;;;5074560;28;19979;-65
2023/01/05 00:29:06;;;;;;;;;;;14.70;64.90;;;;;;5092665;28;19968;-65
2023/01/05 00:31:32;;;;;;;;;;;14.70;64.90;;;;;;5074547;28;19924;-66
2023/01/05 00:33:57;;;;;;;;;;;14.70;64.90;;;;;;5092667;28;19934;-66
2023/01/05 00:36:23;;;;;;;;;;;14.70;64.90;;;;;;5092532;28;19920;-66
2023/01/05 00:38:49;;;;;;;;;;;14.70;65.70;;;;;;5092595;28;20345;-65
2023/01/05 00:41:14;;;;;;;;;;;14.70;64.90;;;;;;5074682;28;19966;-65
2023/01/05 00:43:40;;;;;;;;;;;14.70;65.00;;;;;;5074310;28;20348;-66
2023/01/05 00:46:05;;;;;;;;;;;14.70;64.90;;;;;;5074653;28;19920;-66
2023/01/05 00:48:31;;;;;;;;;;;14.70;64.90;;;;;;5074710;28;20288;-65
2023/01/05 00:50:56;;;;;;;;;;;14.70;64.90;;;;;;5074103;28;19928;-66
2023/01/05 00:53:22;;;;;;;;;;;14.70;64.90;;;;;;5074329;28;19920;-65
2023/01/05 00:56:02;;;;;;;;;;;14.70;64.80;;;;;;5092311;28;19920;-65
2023/01/05 00:58:28;;;;;;;;;;;14.70;64.80;;;;;;5092355;28;20391;-66
2023/01/05 01:00:53;;;;;;;;;;;14.70;64.80;;;;;;5074490;28;19920;-66
2023/01/05 01:03:19;;;;;;;;;;;14.70;64.80;;;;;;5074237;28;19920;-66
2023/01/05 01:05:44;;;;;;;;;;;14.70;64.80;;;;;;5092284;28;19920;-65
2023/01/05 01:08:10;;;;;;;;;;;14.70;64.80;;;;;;5074565;28;20014;-65
2023/01/05 01:10:38;;;;;;;;;;;14.70;64.80;;;;;;5092147;28;19939;-66
2023/01/05 01:13:03;;;;;;;;;;;14.70;64.80;;;;;;5077850;28;19927;-66
2023/01/05 01:15:29;;;;;;;;;;;14.70;64.80;;;;;;5096269;28;20368;-66
2023/01/05 01:17:54;;;;;;;;;;;14.70;64.80;;;;;;5096070;28;19920;-66
2023/01/05 01:20:20;;;;;;;;;;;14.70;64.80;;;;;;5077900;28;19924;-66
2023/01/05 01:22:45;;;;;;;;;;;14.70;64.80;;;;;;5095959;28;19920;-66
2023/01/05 01:25:11;;;;;;;;;;;14.70;64.80;;;;;;5077575;28;19963;-66
2023/01/05 01:27:36;;;;;;;;;;;14.70;64.70;;;;;;5078039;28;19926;-65
2023/01/05 01:30:02;;;;;;;;;;;14.70;64.70;;;;;;5096299;28;19926;-66
2023/01/05 01:32:27;;;;;;;;;;;14.70;64.80;;;;;;5096196;28;19916;-66
2023/01/05 01:34:54;;;;;;;;;;;14.70;64.80;;;;;;5096244;28;20359;-66
2023/01/05 01:37:19;;;;;;;;;;;14.70;64.70;;;;;;5095491;28;19920;-66
2023/01/05 01:39:45;;;;;;;;;;;14.70;64.70;;;;;;5095795;28;20391;-66
2023/01/05 01:42:13;;;;;;;;;;;14.80;64.70;;;;;;5095456;28;19920;-66
2023/01/05 01:47:28;;;;;;;;;;;14.70;64.70;;;;;;5118310;27;2120980;-65
2023/01/05 01:49:56;;;;;;;;;;;14.70;64.70;;;;;;5174752;27;19959;-66
2023/01/05 01:52:22;;;;;;;;;;;14.70;64.70;;;;;;5174640;27;19919;-65
2023/01/05 01:54:49;;;;;;;;;;;14.70;64.60;;;;;;5174290;27;19923;-65
2023/01/05 01:57:15;;;;;;;;;;;14.70;64.60;;;;;;5173829;27;19995;-66
2023/01/05 01:59:40;;;;;;;;;;;14.70;64.60;;;;;;5174213;27;20026;-65
2023/01/05 02:02:06;;;;;;;;;;;14.70;64.60;;;;;;5173810;27;19998;-65
2023/01/05 02:04:32;;;;;;;;;;;14.70;64.50;;;;;;5174420;27;19918;-65
2023/01/05 02:06:58;;;;;;;;;;;14.70;64.50;;;;;;5165946;27;19922;-66
2023/01/05 02:09:23;;;;;;;;;;;14.70;64.50;;;;;;5153509;27;19915;-65
2023/01/05 02:12:09;;;;;;;;;;;14.70;64.50;;;;;;5153073;27;20326;-66
2023/01/05 02:14:57;;;;;;;;;;;14.70;64.50;;;;;;5152901;27;20381;-65
2023/01/05 02:20:30;;;;;;;;;;;14.70;64.60;;;;;;5090397;28;19908;-65
2023/01/05 02:31:16;;;;;;;;;;;14.70;64.50;;;;;;5127331;27;1871763;-65
2023/01/05 02:34:03;;;;;;;;;;;14.70;64.40;;;;;;5174442;27;19914;-65
2023/01/05 02:36:49;;;;;;;;;;;14.70;64.50;;;;;;5174103;27;20448;-65
2023/01/05 02:42:12;;;;;;;;;;;14.60;64.30;;;;;;5089717;28;19915;-66
2023/01/05 02:44:37;;;;;;;;;;;14.60;64.30;;;;;;5088601;28;19958;-66
2023/01/05 02:49:43;;;;;;;;;;;14.70;64.40;;;;;;5089885;28;19909;-65
2023/01/05 02:52:10;;;;;;;;;;;14.60;64.30;;;;;;5088635;28;19923;-65
2023/01/05 02:54:55;;;;;;;;;;;14.60;64.30;;;;;;5088879;28;19955;-66
2023/01/05 02:57:45;;;;;;;;;;;14.70;64.40;;;;;;5088140;28;19916;-66
2023/01/05 03:00:11;;;;;;;;;;;14.70;64.30;;;;;;5088021;28;19920;-65
2023/01/05 03:02:39;;;;;;;;;;;14.60;64.20;;;;;;5088093;28;19920;-66
2023/01/05 03:05:08;;;;;;;;;;;14.70;64.30;;;;;;5088274;28;20440;-65
2023/01/05 03:07:35;;;;;;;;;;;14.70;64.30;;;;;;5088244;28;19924;-65
2023/01/05 03:13:39;;;;;;;;;;;14.70;64.30;;;;;;5088444;28;19920;-65
2023/01/05 03:15:35;;;;;;;;;;;14.70;64.30;;;;;;5089124;28;19947;-65
2023/01/05 03:20:45;;;;;;;;;;;14.70;64.30;;;;;;5110235;27;20280;-66
2023/01/05 03:37:27;;;;;;;;;;;14.70;64.30;;;;;;5109763;28;19969;-65
2023/01/05 03:39:53;;;;;;;;;;;14.60;64.20;;;;;;5108537;28;19931;-66
2023/01/05 03:42:19;;;;;;;;;;;14.70;64.20;;;;;;5108811;28;19924;-65
2023/01/05 03:44:45;;;;;;;;;;;14.60;64.20;;;;;;5108918;28;20382;-71
2023/01/05 03:47:11;;;;;;;;;;;14.70;64.20;;;;;;5109744;28;20264;-66
2023/01/05 03:49:37;;;;;;;;;;;14.70;64.20;;;;;;5108506;28;19927;-66
2023/01/05 03:52:03;;;;;;;;;;;14.60;64.10;;;;;;5108404;28;20010;-65
2023/01/05 03:54:28;;;;;;;;;;;14.60;64.10;;;;;;5109691;28;20011;-65
2023/01/05 03:56:54;;;;;;;;;;;14.60;64.10;;;;;;5108533;28;19924;-65
2023/01/05 03:59:19;;;;;;;;;;;14.70;64.10;;;;;;5109641;28;19924;-65
2023/01/05 04:01:45;;;;;;;;;;;14.60;64.10;;;;;;5108158;28;19949;-72
2023/01/05 04:04:10;;;;;;;;;;;14.60;64.10;;;;;;5108155;28;19969;-65
2023/01/05 04:06:36;;;;;;;;;;;14.60;64.10;;;;;;5108117;28;19919;-65
2023/01/05 04:09:02;;;;;;;;;;;14.60;64.10;;;;;;5109462;28;20062;-66
2023/01/05 04:11:27;;;;;;;;;;;14.60;64.10;;;;;;5109264;28;20062;-71
2023/01/05 04:13:53;;;;;;;;;;;14.60;64.10;;;;;;5108325;28;19920;-66
2023/01/05 04:16:18;;;;;;;;;;;14.60;64.10;;;;;;5107916;28;19971;-66
2023/01/05 04:18:44;;;;;;;;;;;14.60;64.10;;;;;;5112955;28;19930;-66
2023/01/05 04:21:10;;;;;;;;;;;14.70;64.10;;;;;;5111552;28;19936;-65
2023/01/05 04:23:35;;;;;;;;;;;14.60;64.10;;;;;;5129595;28;20370;-66
2023/01/05 04:26:01;;;;;;;;;;;14.60;64.10;;;;;;5129531;28;20426;-65
2023/01/05 04:28:26;;;;;;;;;;;14.60;64.10;;;;;;5111324;28;20268;-66
2023/01/05 04:30:53;;;;;;;;;;;14.60;64.10;;;;;;5122384;28;20295;-66
2023/01/05 04:33:19;;;;;;;;;;;14.60;64.00;;;;;;5115831;28;20010;-72
2023/01/05 04:35:44;;;;;;;;;;;14.60;64.00;;;;;;5115784;28;19971;-65
2023/01/05 04:38:11;;;;;;;;;;;14.60;64.10;;;;;;5097328;28;19923;-66
2023/01/05 04:40:36;;;;;;;;;;;14.60;64.00;;;;;;5097220;28;19923;-66
2023/01/05 04:43:02;;;;;;;;;;;14.60;64.00;;;;;;5097420;28;19927;-66
2023/01/05 04:45:27;;;;;;;;;;;14.60;64.00;;;;;;5097527;28;19920;-66
2023/01/05 04:47:53;;;;;;;;;;;14.60;64.00;;;;;;5097093;28;19920;-66
2023/01/05 04:50:19;;;;;;;;;;;14.60;64.00;;;;;;5080229;28;19926;-65
2023/01/05 04:52:45;;;;;;;;;;;14.60;64.00;;;;;;5115274;28;19993;-66
2023/01/05 04:55:10;;;;;;;;;;;14.60;64.00;;;;;;5115332;28;20392;-65
2023/01/05 04:57:36;;;;;;;;;;;14.60;64.00;;;;;;5115214;28;19957;-66
2023/01/05 05:00:03;;;;;;;;;;;14.60;64.00;;;;;;5115050;28;20371;-66
2023/01/05 05:02:28;;;;;;;;;;;14.60;64.00;;;;;;5115173;28;20361;-65
2023/01/05 05:04:54;;;;;;;;;;;14.60;64.00;;;;;;5097023;28;20018;-66
2023/01/05 05:07:19;;;;;;;;;;;14.50;63.90;;;;;;5115128;28;19920;-70
2023/01/05 05:09:45;;;;;;;;;;;14.60;64.00;;;;;;5114973;28;19930;-65
2023/01/05 05:12:12;;;;;;;;;;;14.60;64.00;;;;;;5114986;28;20387;-66
2023/01/05 05:14:38;;;;;;;;;;;14.70;64.00;;;;;;5096621;28;19920;-65
2023/01/05 05:17:03;;;;;;;;;;;14.60;64.00;;;;;;5114946;28;19956;-66
2023/01/05 05:19:29;;;;;;;;;;;14.60;64.00;;;;;;5114597;28;20015;-66
2023/01/05 05:21:54;;;;;;;;;;;14.60;64.00;;;;;;5096542;28;20355;-66
2023/01/05 05:24:20;;;;;;;;;;;14.60;64.00;;;;;;5096692;28;19977;-66
2023/01/05 05:26:45;;;;;;;;;;;14.60;64.00;;;;;;5096735;28;19985;-66
2023/01/05 05:29:11;;;;;;;;;;;14.60;64.00;;;;;;5114530;28;20371;-65
2023/01/05 05:31:36;;;;;;;;;;;14.70;64.00;;;;;;5096685;28;19972;-65
2023/01/05 05:34:02;;;;;;;;;;;14.60;63.90;;;;;;5114567;28;19964;-66
2023/01/05 05:36:27;;;;;;;;;;;14.60;64.00;;;;;;5114559;28;20442;-65
2023/01/05 05:38:53;;;;;;;;;;;14.60;64.00;;;;;;5096134;28;20006;-66
2023/01/05 05:41:18;;;;;;;;;;;14.60;63.90;;;;;;5096115;28;20019;-65
2023/01/05 05:43:44;;;;;;;;;;;14.60;63.90;;;;;;5095434;28;19971;-66
2023/01/05 05:46:09;;;;;;;;;;;14.60;64.00;;;;;;5114226;28;20401;-71
2023/01/05 05:48:35;;;;;;;;;;;14.50;63.90;;;;;;5114417;28;19919;-66
2023/01/05 05:51:00;;;;;;;;;;;14.60;64.00;;;;;;5114157;28;19920;-66
2023/01/05 05:53:26;;;;;;;;;;;14.60;64.00;;;;;;5096259;28;19920;-73
2023/01/05 05:55:51;;;;;;;;;;;14.60;64.00;;;;;;5096137;28;19919;-71
2023/01/05 05:58:17;;;;;;;;;;;14.60;64.00;;;;;;5096008;28;20367;-66
2023/01/05 06:00:43;;;;;;;;;;;14.60;64.00;;;;;;5095849;28;19920;-66
2023/01/05 06:03:08;;;;;;;;;;;14.60;64.00;;;;;;5095709;28;19920;-72
2023/01/05 06:05:34;;;;;;;;;;;14.60;64.00;;;;;;5095639;28;19923;-66
2023/01/05 06:08:00;;;;;;;;;;;14.60;63.90;;;;;;5129791;27;19920;-66
2023/01/05 06:10:25;;;;;;;;;;;14.60;63.90;;;;;;5095863;28;20008;-66
2023/01/05 06:12:53;;;;;;;;;;;14.60;63.90;;;;;;5095826;28;19919;-66
2023/01/05 06:15:19;;;;;;;;;;;14.60;64.00;;;;;;5095406;28;19967;-66
2023/01/05 06:17:45;;;;;;;;;;;14.60;64.00;;;;;;5113859;28;20019;-66
2023/01/05 06:20:10;;;;;;;;;;;14.60;64.00;;;;;;5113219;28;20334;-66
2023/01/05 06:22:36;;;;;;;;;;;14.50;63.90;;;;;;5113070;28;19919;-65
2023/01/05 06:25:01;;;;;;;;;;;14.60;63.90;;;;;;5095687;28;19962;-66
2023/01/05 06:27:27;;;;;;;;;;;14.60;64.00;;;;;;5113436;28;20334;-65
2023/01/05 06:29:52;;;;;;;;;;;14.60;63.90;;;;;;5095236;28;19926;-66
2023/01/05 06:32:18;;;;;;;;;;;14.60;63.90;;;;;;5113353;28;19924;-66
2023/01/05 06:34:43;;;;;;;;;;;14.60;63.90;;;;;;5095225;28;20009;-65
2023/01/05 06:37:09;;;;;;;;;;;14.60;63.90;;;;;;5113395;28;19919;-66
2023/01/05 06:39:34;;;;;;;;;;;14.60;64.00;;;;;;5095039;28;20382;-66
2023/01/05 06:42:00;;;;;;;;;;;14.60;64.70;;;;;;5113248;28;19963;-66
2023/01/05 06:44:25;;;;;;;;;;;14.60;63.90;;;;;;5095263;28;19963;-66
2023/01/05 06:46:51;;;;;;;;;;;14.60;63.90;;;;;;5113078;28;19964;-66
2023/01/05 06:49:17;;;;;;;;;;;14.60;63.90;;;;;;5094955;28;20002;-66
2023/01/05 06:51:42;;;;;;;;;;;14.60;63.90;;;;;;5113192;28;20010;-66
2023/01/05 06:54:08;;;;;;;;;;;14.60;63.90;;;;;;5113283;28;19920;-66
2023/01/05 06:56:34;;;;;;;;;;;14.50;63.80;;;;;;5094783;28;19927;-68
2023/01/05 06:58:59;;;;;;;;;;;14.60;63.90;;;;;;5094600;28;19923;-68
2023/01/05 07:01:24;;;;;;;;;;;14.60;63.90;;;;;;5095004;28;20014;-68
2023/01/05 07:03:50;;;;;;;;;;;14.60;63.90;;;;;;5094647;28;19992;-67
2023/01/05 07:06:16;;;;;;;;;;;14.60;63.90;;;;;;5112992;28;19970;-68
2023/01/05 07:08:41;;;;;;;;;;;14.60;63.90;;;;;;5094600;28;19965;-68
2023/01/05 07:11:07;;;;;;;;;;;14.60;63.90;;;;;;5078061;28;19965;-68
2023/01/05 07:13:32;;;;;;;;;;;14.60;63.90;;;;;;5094566;28;19926;-68
2023/01/05 07:15:58;;;;;;;;;;;14.60;63.90;;;;;;5094429;28;19927;-68
2023/01/05 07:18:23;;;;;;;;;;;14.60;63.90;;;;;;5112375;28;20010;-68
2023/01/05 07:20:49;;;;;;;;;;;14.60;63.80;;;;;;5112468;28;19977;-67
2023/01/05 07:23:14;;;;;;;;;;;14.50;63.80;;;;;;5112335;28;19924;-68
2023/01/05 07:25:40;;;;;;;;;;;14.50;63.80;;;;;;5112643;28;19920;-68
2023/01/05 07:28:06;;;;;;;;;;;14.60;63.90;;;;;;5094478;28;20027;-74
2023/01/05 07:30:31;;;;;;;;;;;14.60;63.80;;;;;;5094640;28;19916;-69
2023/01/05 07:32:58;;;;;;;;;;;14.50;64.60;;;;;;5112586;28;19916;-68
2023/01/05 07:35:23;;;;;;;;;;;14.60;63.80;;;;;;5094457;28;19968;-68
2023/01/05 07:37:49;;;;;;;;;;;14.60;63.90;;;;;;5112507;28;20006;-68
2023/01/05 07:40:14;;;;;;;;;;;14.60;63.90;;;;;;5112494;28;19986;-73
2023/01/05 07:42:40;;;;;;;;;;;14.50;63.80;;;;;;5094356;28;20064;-67
2023/01/05 07:45:06;;;;;;;;;;;14.60;63.90;;;;;;5094545;28;20436;-68
2023/01/05 07:47:31;;;;;;;;;;;14.50;63.80;;;;;;5094181;28;20439;-68
2023/01/05 07:49:57;;;;;;;;;;;14.50;63.80;;;;;;5094390;28;19916;-68
2023/01/05 07:52:22;;;;;;;;;;;14.50;63.90;;;;;;5112529;28;20352;-74
2023/01/05 07:54:48;;;;;;;;;;;14.50;63.80;;;;;;5112693;28;20266;-74
2023/01/05 07:57:13;;;;;;;;;;;14.60;63.90;;;;;;5112614;28;19924;-73
2023/01/05 07:59:39;;;;;;;;;;;14.50;63.80;;;;;;5094038;28;19920;-68
2023/01/05 08:02:04;;;;;;;;;;;14.60;63.80;;;;;;5094075;28;20023;-68
2023/01/05 08:04:30;;;;;;;;;;;14.50;63.80;;;;;;5094451;28;19916;-68
2023/01/05 08:06:55;;;;;;;;;;;14.50;63.80;;;;;;5096820;28;19923;-68
2023/01/05 08:12:06;;;;;;;;;;;14.60;63.80;;;;;;5097706;28;19916;-68
2023/01/05 08:14:32;;;;;;;;;;;14.60;63.90;;;;;;5098136;28;19940;-68
2023/01/05 08:16:57;;;;;;;;;;;14.50;63.80;;;;;;5097632;28;19922;-69
2023/01/05 08:19:23;;;;;;;;;;;14.50;63.80;;;;;;5093539;28;19920;-68
2023/01/05 08:21:48;;;;;;;;;;;14.50;63.80;;;;;;5094264;28;19967;-68
2023/01/05 08:24:14;;;;;;;;;;;14.60;63.90;;;;;;5095349;28;19965;-73
2023/01/05 08:26:40;;;;;;;;;;;14.50;63.80;;;;;;5094045;28;19916;-69
2023/01/05 08:29:05;;;;;;;;;;;14.50;63.80;;;;;;5094491;28;19956;-68
2023/01/05 08:31:35;;;;;;;;;;;14.50;63.80;;;;;;5094069;28;19999;-68
2023/01/05 08:34:02;;;;;;;;;;;14.50;63.80;;;;;;5094378;28;20363;-72
2023/01/05 08:36:30;;;;;;;;;;;14.50;63.80;;;;;;5094162;28;19916;-68
2023/01/05 08:38:55;;;;;;;;;;;14.50;63.80;;;;;;5093771;28;19931;-68
2023/01/05 08:41:23;;;;;;;;;;;14.50;63.80;;;;;;5095221;28;19916;-68
2023/01/05 08:43:50;;;;;;;;;;;14.50;63.90;;;;;;5093565;28;19951;-68
2023/01/05 08:46:15;;;;;;;;;;;14.60;63.90;;;;;;5094887;28;19924;-68
2023/01/05 08:48:41;;;;;;;;;;;14.50;63.80;;;;;;5093949;28;20356;-68
2023/01/05 08:51:06;;;;;;;;;;;14.50;63.80;;;;;;5093983;28;20321;-68
2023/01/05 08:53:34;;;;;;;;;;;14.50;63.80;;;;;;5094016;28;20360;-68
2023/01/05 08:56:01;;;;;;;;;;;14.50;63.80;;;;;;5093591;28;20376;-74
2023/01/05 08:58:26;;;;;;;;;;;14.50;63.80;;;;;;5093593;28;19945;-68
2023/01/05 09:00:53;;;;;;;;;;;14.50;63.80;;;;;;5093434;28;19920;-68
2023/01/05 09:03:19;;;;;;;;;;;14.50;63.80;;;;;;5093436;28;19920;-68
2023/01/05 09:05:44;;;;;;;;;;;14.50;63.80;;;;;;5092818;28;19924;-68
2023/01/05 09:08:10;;;;;;;;;;;14.50;63.80;;;;;;5094828;28;19920;-68
2023/01/05 09:10:35;;;;;;;;;;;14.50;63.80;;;;;;5093705;28;19920;-67
2023/01/05 09:13:01;;;;;;;;;;;14.50;63.80;;;;;;5093493;28;20383;-73
2023/01/05 09:15:26;;;;;;;;;;;14.50;64.20;;;;;;5094739;28;20378;-68
2023/01/05 09:17:52;;;;;;;;;;;14.50;63.80;;;;;;5092990;28;20014;-68
2023/01/05 09:20:18;;;;;;;;;;;14.50;63.70;;;;;;5092837;28;19931;-68
2023/01/05 09:22:43;;;;;;;;;;;14.50;63.80;;;;;;5094407;28;19927;-67
2023/01/05 09:25:09;;;;;;;;;;;14.50;63.70;;;;;;5093053;28;20007;-68
2023/01/05 09:27:35;;;;;;;;;;;14.50;63.70;;;;;;5094267;28;19924;-68
2023/01/05 09:30:01;;;;;;;;;;;14.50;63.70;;;;;;5093082;28;19966;-68
2023/01/05 09:32:27;;;;;;;;;;;14.50;63.70;;;;;;5094244;28;19920;-68
2023/01/05 09:34:52;;;;;;;;;;;14.50;63.70;;;;;;5093236;28;20425;-68
2023/01/05 09:37:18;;;;;;;;;;;14.50;63.70;;;;;;5092797;28;20414;-68
2023/01/05 09:39:44;;;;;;;;;;;14.50;63.70;;;;;;5092916;28;19970;-68
2023/01/05 09:42:12;;;;;;;;;;;14.50;63.70;;;;;;5092636;28;20009;-68
2023/01/05 09:44:40;;;;;;;;;;;14.60;63.80;;;;;;5092398;28;19920;-69
2023/01/05 09:50:01;;;;;;;;;;;14.70;64.20;;;;;;5089948;28;20375;-65
2023/01/05 09:52:27;;;;;;;;;;;15.20;64.00;;;;;;5088802;28;20019;-66
2023/01/05 09:54:53;;;;;;;;;;;15.60;63.50;;;;;;5088623;28;20330;-66
2023/01/05 09:57:20;;;;;;;;;;;16.00;62.60;;;;;;5088795;28;19920;-66
2023/01/05 09:59:47;;;;;;;;;;;16.30;61.80;;;;;;5088203;28;20011;-73
2023/01/05 10:05:01;;;;;;;;;;;17.20;59.60;;;;;;5089919;28;20309;-66
2023/01/05 10:07:44;;;;;;;;;;;17.80;58.20;;;;;;5088908;28;20482;-72
2023/01/05 10:10:16;;;;;;;;;;;18.30;56.40;;;;;;5088813;28;20322;-67
2023/01/05 10:13:01;;;;;;;;;;;19.10;54.60;;;;;;5088500;28;20376;-66
2023/01/05 10:15:29;;;;;;;;;;;19.90;52.80;;;;;;5088471;28;19921;-66
2023/01/05 10:17:55;;;;;;;;;;;20.60;51.10;;;;;;5087981;28;19920;-65
2023/01/05 10:23:10;;;;;;;;;;;21.40;48.80;;;;;;5089768;28;19944;-67
2023/01/05 10:25:38;;;;;;;;;;;21.90;48.00;;;;;;5088844;28;19920;-67
2023/01/05 10:33:31;;;;;;;;;;;22.40;46.30;;;;;;5089895;28;19956;-67
2023/01/05 10:36:12;;;;;;;;;;;22.60;45.80;;;;;;5088362;28;20019;-66
2023/01/05 10:38:44;;;;;;;;;;;22.70;45.30;;;;;;5088533;28;19995;-67
2023/01/05 10:41:23;;;;;;;;;;;22.90;44.90;;;;;;5104682;28;19920;-65
2023/01/05 10:44:08;;;;;;;;;;;22.90;45.70;;;;;;5087680;28;19920;-66
2023/01/05 10:46:36;;;;;;;;;;;23.00;46.40;;;;;;5087152;28;19924;-66
2023/01/05 10:49:03;;;;;;;;;;;23.10;45.80;;;;;;5087637;28;20007;-66
2023/01/05 10:51:32;;;;;;;;;;;23.10;46.00;;;;;;5086360;28;19924;-66
2023/01/05 10:53:57;;;;;;;;;;;23.00;46.10;;;;;;5088596;28;19973;-66
2023/01/05 10:56:24;;;;;;;;;;;23.00;45.70;;;;;;5089566;28;19921;-66
2023/01/05 10:59:05;;;;;;;;;;;22.90;46.10;;;;;;5088094;28;19971;-66
2023/01/05 11:01:30;;;;;;;;;;;22.80;46.30;;;;;;5088162;28;20360;-66
2023/01/05 11:04:16;;;;;;;;;;;22.60;46.20;;;;;;5088128;28;19970;-65
2023/01/05 11:06:41;;;;;;;;;;;22.50;46.00;;;;;;5089194;28;19984;-66
2023/01/05 11:09:22;;;;;;;;;;;22.40;46.60;;;;;;5088292;28;20003;-66
2023/01/05 11:11:57;;;;;;;;;;;22.30;46.90;;;;;;5087917;28;20016;-71
2023/01/05 11:14:22;;;;;;;;;;;22.10;47.20;;;;;;5088287;28;19926;-66
2023/01/05 11:16:49;;;;;;;;;;;21.90;47.30;;;;;;5087722;28;20015;-65
2023/01/05 11:19:16;;;;;;;;;;;21.70;47.50;;;;;;5088163;28;19921;-66
2023/01/05 11:21:44;;;;;;;;;;;21.50;48.10;;;;;;5088030;28;19926;-66
2023/01/05 11:24:25;;;;;;;;;;;21.30;48.50;;;;;;5088843;28;19966;-65
2023/01/05 11:26:52;;;;;;;;;;;21.10;48.50;;;;;;5087648;28;20007;-66
2023/01/05 11:29:18;;;;;;;;;;;20.90;49.00;;;;;;5089037;28;19921;-66
2023/01/05 11:31:46;;;;;;;;;;;20.70;49.20;;;;;;5095124;28;19949;-65
2023/01/05 11:37:19;;;;;;;;;;;20.40;50.50;;;;;;5089934;28;20376;-66
2023/01/05 11:45:15;;;;;;;;;;;19.80;50.80;;;;;;5089815;28;19938;-66
2023/01/05 11:47:44;;;;;;;;;;;19.70;51.10;;;;;;5088596;28;19927;-66
2023/01/05 11:52:54;;;;;;;;;;;19.40;51.60;;;;;;5089927;28;19919;-66
2023/01/05 11:58:20;;;;;;;;;;;19.10;52.10;;;;;;5110236;27;19942;-66
2023/01/05 12:03:36;;;;;;;;;;;18.90;52.50;;;;;;5089862;28;19938;-66
2023/01/05 12:06:08;;;;;;;;;;;18.80;52.70;;;;;;5088870;28;20311;-65
2023/01/05 12:08:40;;;;;;;;;;;18.70;52.90;;;;;;5088803;28;19989;-66
2023/01/05 12:22:20;;;;;;;;;;;18.30;54.00;;;;;;5089889;28;20402;-65
2023/01/05 12:25:07;;;;;;;;;;;18.20;54.10;;;;;;5088420;28;19920;-65
2023/01/05 12:30:39;;;;;;;;;;;18.10;54.50;;;;;;5090049;28;19919;-66
2023/01/05 12:35:53;;;;;;;;;;;17.90;54.80;;;;;;5109719;27;19944;-66
2023/01/05 12:49:26;;;;;;;;;;;17.70;55.60;;;;;;5089868;28;19913;-71
2023/01/05 12:52:01;;;;;;;;;;;17.60;55.70;;;;;;5088909;28;19920;-66
2023/01/05 12:54:30;;;;;;;;;;;17.60;55.90;;;;;;5088498;28;19920;-71
2023/01/05 12:57:03;;;;;;;;;;;17.50;55.90;;;;;;5088811;28;20413;-66
2023/01/05 12:59:33;;;;;;;;;;;17.40;56.00;;;;;;5088389;28;19920;-65
2023/01/05 13:04:44;;;;;;;;;;;17.40;56.20;;;;;;5172230;27;20018;-65
2023/01/05 13:07:14;;;;;;;;;;;17.30;56.40;;;;;;5153535;27;19919;-65
2023/01/05 13:09:41;;;;;;;;;;;17.30;56.50;;;;;;5153793;27;19919;-66
2023/01/05 13:12:08;;;;;;;;;;;17.20;56.60;;;;;;5153763;27;20283;-66
2023/01/05 13:14:35;;;;;;;;;;;17.20;56.70;;;;;;5153709;27;19977;-66
2023/01/05 13:22:25;;;;;;;;;;;17.10;57.00;;;;;;5090010;28;19944;-65
2023/01/05 13:24:57;;;;;;;;;;;17.00;57.00;;;;;;5088516;28;19925;-66
2023/01/05 13:27:24;;;;;;;;;;;17.00;57.20;;;;;;5088869;28;19920;-65
2023/01/05 13:29:53;;;;;;;;;;;17.00;57.30;;;;;;5088755;28;19920;-66
2023/01/05 13:32:28;;;;;;;;;;;16.90;57.30;;;;;;5088500;28;19920;-66
2023/01/05 13:35:13;;;;;;;;;;;16.90;57.50;;;;;;5088458;28;19921;-66
2023/01/05 13:40:30;;;;;;;;;;;16.80;57.70;;;;;;5089934;28;19919;-65
2023/01/05 13:43:15;;;;;;;;;;;16.80;57.80;;;;;;5088960;28;19920;-66
2023/01/05 13:51:36;;;;;;;;;;;16.60;58.00;;;;;;5110281;27;19941;-66
2023/01/05 13:54:04;;;;;;;;;;;16.60;58.20;;;;;;5108799;28;20617;-66
2023/01/05 13:56:30;;;;;;;;;;;16.50;58.30;;;;;;5108864;28;19963;-66
2023/01/05 13:58:58;;;;;;;;;;;16.50;58.40;;;;;;5109177;28;19923;-65
2023/01/05 14:01:40;;;;;;;;;;;16.40;58.50;;;;;;5108779;28;20006;-65
2023/01/05 14:04:15;;;;;;;;;;;16.40;58.70;;;;;;5109046;28;19920;-65
2023/01/05 14:06:43;;;;;;;;;;;16.40;58.70;;;;;;5108678;28;19965;-65
2023/01/05 14:09:14;;;;;;;;;;;16.30;58.80;;;;;;5109911;28;19928;-65
2023/01/05 14:12:00;;;;;;;;;;;16.30;58.90;;;;;;5109869;28;20010;-65
2023/01/05 14:14:27;;;;;;;;;;;16.20;59.00;;;;;;5109748;28;19923;-65
2023/01/05 14:16:53;;;;;;;;;;;16.30;59.20;;;;;;5108280;28;20006;-65
2023/01/05 14:25:18;;;;;;;;;;;16.10;59.40;;;;;;5089626;28;20376;-66
2023/01/05 14:28:04;;;;;;;;;;;16.20;59.50;;;;;;5088244;28;19921;-65
2023/01/05 14:30:29;;;;;;;;;;;16.10;59.60;;;;;;5088369;28;19920;-65
2023/01/05 14:33:02;;;;;;;;;;;16.10;59.60;;;;;;5088273;28;19970;-66
2023/01/05 14:35:29;;;;;;;;;;;16.10;59.70;;;;;;5088710;28;19964;-65
2023/01/05 14:37:59;;;;;;;;;;;16.00;59.70;;;;;;5088216;28;19921;-65
2023/01/05 14:43:20;;;;;;;;;;;16.00;59.80;;;;;;5127018;27;1877057;-65
2023/01/05 14:48:45;;;;;;;;;;;16.00;59.90;;;;;;5110098;27;19919;-71
2023/01/05 14:53:53;;;;;;;;;;;15.90;59.90;;;;;;5089977;28;19908;-65
2023/01/05 14:56:20;;;;;;;;;;;15.90;60.00;;;;;;5088778;28;20344;-66
2023/01/05 14:58:51;;;;;;;;;;;16.00;60.10;;;;;;5088503;28;19920;-65
2023/01/05 15:06:56;;;;;;;;;;;15.90;60.10;;;;;;5089635;28;19957;-65
2023/01/05 15:09:35;;;;;;;;;;;15.80;60.10;;;;;;5105248;28;19916;-65
2023/01/05 15:12:21;;;;;;;;;;;15.90;60.20;;;;;;5088645;28;19916;-71
2023/01/05 15:17:47;;;;;;;;;;;15.80;60.30;;;;;;5110274;27;19930;-65
2023/01/05 15:20:32;;;;;;;;;;;15.80;60.20;;;;;;5108804;28;19930;-65
2023/01/05 15:23:18;;;;;;;;;;;15.80;60.20;;;;;;5109904;28;19927;-65
2023/01/05 15:26:03;;;;;;;;;;;15.80;60.30;;;;;;5108382;28;19927;-71
2023/01/05 15:33:58;;;;;;;;;;;15.80;60.30;;;;;;5089743;28;19908;-72
2023/01/05 15:36:28;;;;;;;;;;;15.90;60.30;;;;;;5090037;28;20345;-65
2023/01/05 15:38:54;;;;;;;;;;;15.80;60.30;;;;;;5088732;28;19982;-65
2023/01/05 15:41:20;;;;;;;;;;;15.80;60.30;;;;;;5088541;28;20004;-65
2023/01/05 15:43:46;;;;;;;;;;;15.80;60.30;;;;;;5089658;28;19955;-65
2023/01/05 15:46:16;;;;;;;;;;;15.80;60.30;;;;;;5088435;28;20378;-66
2023/01/05 15:48:42;;;;;;;;;;;15.80;60.30;;;;;;5088197;28;20427;-65
2023/01/05 15:51:09;;;;;;;;;;;15.80;60.30;;;;;;5088315;28;19959;-66
2023/01/05 15:53:37;;;;;;;;;;;15.80;60.30;;;;;;5089556;28;19921;-71
2023/01/05 15:56:04;;;;;;;;;;;15.80;60.30;;;;;;5088159;28;20003;-65
2023/01/05 15:58:32;;;;;;;;;;;15.80;60.40;;;;;;5088438;28;19969;-65
2023/01/05 16:01:00;;;;;;;;;;;15.70;60.40;;;;;;5088010;28;19916;-65
2023/01/05 16:03:28;;;;;;;;;;;15.70;60.30;;;;;;5089080;28;20425;-66
2023/01/05 16:05:57;;;;;;;;;;;15.70;60.30;;;;;;5088044;28;19920;-65
2023/01/05 16:08:22;;;;;;;;;;;15.70;60.40;;;;;;5089245;28;19916;-65
2023/01/05 16:10:50;;;;;;;;;;;15.70;60.30;;;;;;5089287;28;19917;-66
2023/01/05 16:13:38;;;;;;;;;;;15.80;60.40;;;;;;5088001;28;20324;-65
2023/01/05 16:16:12;;;;;;;;;;;15.70;60.30;;;;;;5088801;28;19920;-66
2023/01/05 16:18:39;;;;;;;;;;;15.70;60.30;;;;;;5087801;28;19935;-65
2023/01/05 16:21:10;;;;;;;;;;;15.70;60.30;;;;;;5087732;28;20384;-65
2023/01/05 16:23:43;;;;;;;;;;;15.70;60.30;;;;;;5087752;28;20493;-65
2023/01/05 16:26:13;;;;;;;;;;;15.70;60.30;;;;;;5087964;28;20337;-65
2023/01/05 16:28:39;;;;;;;;;;;15.70;60.30;;;;;;5088876;28;20326;-66
2023/01/05 16:31:11;;;;;;;;;;;15.70;60.30;;;;;;5088835;28;19927;-66
2023/01/05 16:33:39;;;;;;;;;;;15.70;60.30;;;;;;5087296;28;19930;-72
2023/01/05 16:36:07;;;;;;;;;;;15.60;60.30;;;;;;5087458;28;19920;-65
2023/01/05 16:38:33;;;;;;;;;;;15.60;60.30;;;;;;5087834;28;19970;-65
2023/01/05 16:41:03;;;;;;;;;;;15.60;60.30;;;;;;5088662;28;19921;-66
2023/01/05 16:49:02;;;;;;;;;;;15.60;60.30;;;;;;5110165;27;19912;-65
2023/01/05 16:54:13;;;;;;;;;;;15.60;60.40;;;;;;5172377;27;19911;-66
2023/01/05 16:56:45;;;;;;;;;;;15.60;60.30;;;;;;5153500;27;19919;-66
2023/01/05 16:59:30;;;;;;;;;;;15.70;60.40;;;;;;5153626;27;19926;-65
2023/01/05 17:01:55;;;;;;;;;;;15.60;60.30;;;;;;5153719;27;20029;-65
2023/01/05 17:04:21;;;;;;;;;;;15.60;60.30;;;;;;5153438;27;20005;-71
2023/01/05 17:06:48;;;;;;;;;;;15.60;60.40;;;;;;5153369;27;20010;-65
2023/01/05 17:09:18;;;;;;;;;;;15.60;60.40;;;;;;5171979;27;20297;-65